Terminal Aerodrome Forecast
Issued by NWS

Home | Current Version | Previous Version | Text Only | Print | Product List | Glossary On
Versions: 1 2 3 4 5 6 7 8 9 10 11 12 13 14 15 16 17 18 19 20 21 22 23
000
FTUS43 KGRR 171447 AAC
TAFLAN
TAF AMD
KLAN 171447Z 1715/1812 02005KT 1SM BR OVC003
     FM171700 22007KT 4SM BR OVC007
     FM172300 25008KT 2SM -DZ BR OVC003
     FM180200 25009KT 1 1/2SM -DZ BR OVC003=

USA.gov is the U.S. government's official web portal to all federal, state and local government web resources and services.